createdAt,value
2017-10-17T00:01:25.580Z,12.40
2017-10-17T00:03:59.255Z,13.60
2017-10-17T00:06:32.995Z,12.23
2017-10-17T00:09:06.793Z,12.63
2017-10-17T00:11:40.612Z,12.50
2017-10-17T00:14:14.304Z,11.87
2017-10-17T00:16:51.473Z,12.03
2017-10-17T00:19:26.035Z,12.50
2017-10-17T00:21:59.605Z,12.90
2017-10-17T00:24:33.386Z,12.70
2017-10-17T00:27:08.161Z,11.47
2017-10-17T00:29:41.889Z,12.07
2017-10-17T00:32:15.740Z,10.67
2017-10-17T00:34:50.262Z,11.80
2017-10-17T00:37:24.168Z,11.20
2017-10-17T00:39:57.903Z,10.47
2017-10-17T00:42:31.821Z,11.00
2017-10-17T00:45:05.611Z,11.50
2017-10-17T00:47:39.495Z,11.43
2017-10-17T00:50:13.316Z,11.40
2017-10-17T00:52:47.138Z,11.00
2017-10-17T00:55:20.877Z,12.27
2017-10-17T00:57:54.645Z,11.87
2017-10-17T01:00:28.312Z,12.30
2017-10-17T01:03:01.922Z,12.27
2017-10-17T01:05:36.510Z,11.27
2017-10-17T01:08:10.104Z,11.70
2017-10-17T01:10:44.561Z,12.30
2017-10-17T01:13:20.521Z,10.40
2017-10-17T01:15:55.034Z,10.90
2017-10-17T01:18:28.748Z,12.00
2017-10-17T01:21:04.846Z,11.60
2017-10-17T01:23:48.433Z,12.30
2017-10-17T01:26:22.080Z,11.27
2017-10-17T01:29:00.420Z,11.67
2017-10-17T01:31:35.141Z,12.30
2017-10-17T01:34:10.458Z,10.97
2017-10-17T01:36:44.227Z,11.40
2017-10-17T01:39:18.952Z,12.07
2017-10-17T01:41:52.560Z,12.33
2017-10-17T01:44:36.083Z,11.53
2017-10-17T01:47:09.723Z,11.57
2017-10-17T01:49:46.469Z,12.50
2017-10-17T01:52:23.969Z,11.47
2017-10-17T01:55:00.505Z,12.93
2017-10-17T01:57:36.756Z,13.90
2017-10-17T02:00:13.841Z,14.17
2017-10-17T02:02:48.300Z,12.27
2017-10-17T02:05:21.955Z,13.70
2017-10-17T02:07:55.608Z,13.57
2017-10-17T02:10:29.257Z,13.30
2017-10-17T02:13:03.036Z,13.10
2017-10-17T02:15:36.624Z,12.90
2017-10-17T02:18:26.932Z,13.93
2017-10-17T02:21:31.024Z,14.03
2017-10-17T02:24:08.133Z,14.50
2017-10-17T02:26:42.933Z,13.77
2017-10-17T02:29:30.530Z,13.80
2017-10-17T02:32:04.266Z,13.90
2017-10-17T02:34:40.469Z,12.73
2017-10-17T02:37:14.164Z,13.97
2017-10-17T02:39:48.756Z,13.63
2017-10-17T02:42:23.308Z,13.33
2017-10-17T02:44:56.973Z,14.70
2017-10-17T02:47:31.726Z,13.70
2017-10-17T02:50:06.725Z,13.90
2017-10-17T02:52:43.404Z,15.13
2017-10-17T02:55:18.043Z,14.20
2017-10-17T02:57:51.775Z,14.50
2017-10-17T03:00:25.528Z,14.50
2017-10-17T03:02:59.887Z,14.23
2017-10-17T03:05:34.541Z,15.97
2017-10-17T03:08:11.520Z,15.30
2017-10-17T03:10:47.132Z,14.43
2017-10-17T03:13:23.873Z,15.87
2017-10-17T03:15:59.124Z,14.97
2017-10-17T03:18:33.117Z,15.70
2017-10-17T03:21:23.437Z,16.47
2017-10-17T03:23:58.121Z,14.97
2017-10-17T03:26:31.799Z,15.37
2017-10-17T03:29:05.572Z,14.70
2017-10-17T03:31:39.389Z,14.77
2017-10-17T03:34:20.906Z,16.40
2017-10-17T03:37:01.949Z,15.40
2017-10-17T03:39:37.804Z,15.00
2017-10-17T03:42:13.390Z,14.90
2017-10-17T03:44:50.913Z,16.30
2017-10-17T03:47:40.542Z,15.00
2017-10-17T03:50:15.934Z,14.87
2017-10-17T03:52:50.599Z,15.03
2017-10-17T03:55:24.372Z,15.50
2017-10-17T03:58:00.743Z,16.33
2017-10-17T04:00:34.545Z,16.67
2017-10-17T04:03:08.360Z,15.90
2017-10-17T04:05:45.017Z,15.80
2017-10-17T04:08:25.743Z,15.97
2017-10-17T04:11:02.133Z,16.03
2017-10-17T04:13:38.428Z,15.27
2017-10-17T04:16:32.803Z,17.13
2017-10-17T04:19:11.241Z,16.20
2017-10-17T04:21:48.425Z,16.47
2017-10-17T04:24:25.612Z,16.60
2017-10-17T04:27:16.141Z,17.10
2017-10-17T04:29:57.828Z,18.23
2017-10-17T04:32:39.965Z,17.30
2017-10-17T04:35:16.557Z,16.10
2017-10-17T04:37:51.175Z,16.90
2017-10-17T04:40:28.769Z,16.73
2017-10-17T04:43:15.155Z,16.50
2017-10-17T04:45:50.744Z,18.20
2017-10-17T04:48:46.850Z,17.17
2017-10-17T04:51:28.208Z,15.10
2017-10-17T04:57:13.697Z,16.73
2017-10-17T05:00:10.121Z,17.87
2017-10-17T05:03:01.440Z,16.80
2017-10-17T05:05:53.320Z,15.40
2017-10-17T05:08:47.710Z,15.20
2017-10-17T05:11:24.201Z,15.40
2017-10-17T05:16:58.876Z,17.30
2017-10-17T05:19:55.195Z,16.87
2017-10-17T05:22:39.092Z,18.03
2017-10-17T05:25:15.316Z,16.90
2017-10-17T05:28:07.525Z,19.30
2017-10-17T05:30:49.759Z,18.50
2017-10-17T05:33:40.944Z,16.67
2017-10-17T05:36:14.614Z,17.53
2017-10-17T05:38:48.470Z,17.97
2017-10-17T05:41:22.182Z,18.37
2017-10-17T05:44:04.604Z,17.20
2017-10-17T05:46:38.345Z,18.27
2017-10-17T05:49:28.494Z,16.37
2017-10-17T05:52:02.239Z,17.70
2017-10-17T05:54:36.091Z,16.40
2017-10-17T05:57:09.902Z,16.93
2017-10-17T05:59:43.744Z,16.40
2017-10-17T06:02:17.537Z,17.23
2017-10-17T06:04:51.312Z,16.87
2017-10-17T06:07:25.094Z,17.50
2017-10-17T06:09:58.816Z,16.67
2017-10-17T06:12:32.503Z,17.30
2017-10-17T06:15:06.256Z,17.30
2017-10-17T06:17:40.742Z,17.80
2017-10-17T06:20:14.526Z,17.20
2017-10-17T06:22:48.410Z,19.00
2017-10-17T06:25:22.962Z,16.00
2017-10-17T06:27:56.613Z,16.63
2017-10-17T06:30:30.280Z,17.27
2017-10-17T06:33:04.978Z,18.70
2017-10-17T06:35:38.737Z,17.40
2017-10-17T06:38:12.523Z,17.37
2017-10-17T06:40:46.209Z,17.70
2017-10-17T06:43:19.984Z,18.23
2017-10-17T06:45:54.522Z,17.17
2017-10-17T06:48:28.254Z,17.90
2017-10-17T06:51:01.947Z,16.70
2017-10-17T06:53:37.416Z,16.90
2017-10-17T06:56:11.117Z,17.27
2017-10-17T06:58:45.609Z,16.00
2017-10-17T07:01:19.350Z,19.67
2017-10-17T07:03:53.851Z,16.20
2017-10-17T07:06:28.349Z,18.67
2017-10-17T07:09:02.800Z,16.53
2017-10-17T07:11:36.970Z,15.67
2017-10-17T07:14:10.804Z,17.10
2017-10-17T07:16:44.559Z,17.37
2017-10-17T07:19:18.206Z,18.10
2017-10-17T07:21:51.883Z,16.60
2017-10-17T07:24:25.657Z,16.13
2017-10-17T07:26:59.437Z,17.37
2017-10-17T07:29:33.200Z,17.47
2017-10-17T07:32:06.950Z,16.97
2017-10-17T07:34:41.558Z,17.17
2017-10-17T07:37:15.310Z,17.13
2017-10-17T07:39:48.901Z,15.90
2017-10-17T07:42:22.705Z,18.70
2017-10-17T07:44:56.449Z,18.00
2017-10-17T07:47:30.994Z,16.90
2017-10-17T07:50:05.530Z,18.90
2017-10-17T07:52:39.250Z,17.77
2017-10-17T07:55:12.939Z,19.17
2017-10-17T07:57:46.742Z,17.83
2017-10-17T08:00:20.313Z,20.10
2017-10-17T08:02:54.171Z,18.27
2017-10-17T08:05:28.672Z,19.00
2017-10-17T08:08:02.345Z,19.10
2017-10-17T08:10:36.185Z,20.40
2017-10-17T08:13:09.986Z,20.20
2017-10-17T08:15:43.681Z,19.77
2017-10-17T08:18:17.416Z,18.80
2017-10-17T08:20:51.053Z,19.67
2017-10-17T08:23:24.834Z,18.27
2017-10-17T08:25:58.700Z,19.23
2017-10-17T08:28:32.416Z,19.23
2017-10-17T08:31:06.143Z,23.40
2017-10-17T08:33:39.812Z,22.10
2017-10-17T08:36:13.617Z,19.00
2017-10-17T08:38:47.221Z,17.87
2017-10-17T08:41:20.890Z,17.50
2017-10-17T08:43:55.524Z,16.20
2017-10-17T08:46:29.255Z,16.60
2017-10-17T08:49:03.716Z,16.27
2017-10-17T08:51:37.474Z,16.70
2017-10-17T08:54:11.188Z,16.63
2017-10-17T08:56:46.543Z,15.67
2017-10-17T08:59:20.192Z,15.57
2017-10-17T09:01:53.873Z,15.57
2017-10-17T09:04:27.700Z,13.70
2017-10-17T09:07:01.461Z,13.40
2017-10-17T09:09:35.179Z,13.67
2017-10-17T09:12:09.682Z,14.63
2017-10-17T09:14:43.237Z,14.93
2017-10-17T09:17:17.020Z,14.17
2017-10-17T09:19:50.734Z,13.77
2017-10-17T09:22:24.486Z,15.60
2017-10-17T09:24:58.233Z,14.93
2017-10-17T09:27:32.790Z,16.13
2017-10-17T09:30:06.624Z,16.40
2017-10-17T09:32:41.260Z,16.17
2017-10-17T09:35:15.269Z,16.10
2017-10-17T09:37:49.028Z,17.07
2017-10-17T09:40:22.737Z,16.33
2017-10-17T09:42:56.525Z,17.87
2017-10-17T09:45:31.102Z,19.50
2017-10-17T09:48:04.882Z,19.57
2017-10-17T09:50:38.716Z,19.83
2017-10-17T09:53:12.384Z,21.10
2017-10-17T09:55:46.045Z,19.20
2017-10-17T09:58:19.707Z,20.50
2017-10-17T10:00:53.507Z,22.33
2017-10-17T10:03:27.156Z,21.90
2017-10-17T10:06:00.861Z,24.03
2017-10-17T10:08:34.641Z,23.60
2017-10-17T10:11:08.424Z,23.77
2017-10-17T10:13:42.089Z,24.70
2017-10-17T10:16:15.718Z,25.27
2017-10-17T10:18:49.527Z,24.87
2017-10-17T10:21:23.127Z,27.87
2017-10-17T10:23:56.685Z,24.43
2017-10-17T10:26:30.456Z,25.07
2017-10-17T10:29:04.925Z,27.30
2017-10-17T10:31:38.685Z,26.57
2017-10-17T10:34:12.739Z,26.57
2017-10-17T10:36:46.484Z,29.00
2017-10-17T10:39:20.209Z,30.57
2017-10-17T10:41:53.893Z,29.27
2017-10-17T10:44:27.593Z,31.77
2017-10-17T10:47:01.290Z,29.40
2017-10-17T10:49:34.989Z,27.30
2017-10-17T10:52:08.812Z,27.70
2017-10-17T10:54:42.388Z,28.33
2017-10-17T10:57:16.141Z,27.20
2017-10-17T10:59:49.875Z,25.80
2017-10-17T11:02:23.579Z,23.93
2017-10-17T11:04:57.209Z,22.20
2017-10-17T11:07:30.985Z,25.30
2017-10-17T11:10:04.622Z,19.90
2017-10-17T11:12:38.389Z,23.00
2017-10-17T11:15:12.105Z,19.50
2017-10-17T11:17:45.876Z,21.43
2017-10-17T11:20:19.867Z,18.73
2017-10-17T11:22:53.554Z,18.70
2017-10-17T11:25:29.207Z,18.70
2017-10-17T11:28:02.921Z,20.13
2017-10-17T11:30:36.528Z,21.63
2017-10-17T11:33:10.642Z,20.83
2017-10-17T11:35:44.225Z,21.13
2017-10-17T11:38:18.014Z,20.00
2017-10-17T11:41:03.674Z,19.97
2017-10-17T11:43:50.074Z,20.80
2017-10-17T11:46:23.649Z,19.00
2017-10-17T11:48:57.346Z,21.93
2017-10-17T11:51:31.109Z,19.77
2017-10-17T11:54:04.782Z,21.07
2017-10-17T11:56:38.569Z,20.33
2017-10-17T11:59:12.364Z,20.57
2017-10-17T12:01:46.249Z,21.17
2017-10-17T12:04:19.917Z,21.23
2017-10-17T12:06:53.774Z,22.07
2017-10-17T12:09:27.463Z,23.10
2017-10-17T12:12:01.255Z,24.03
2017-10-17T12:14:35.088Z,23.70
2017-10-17T12:17:08.880Z,24.10
2017-10-17T12:19:42.641Z,25.33
2017-10-17T12:22:16.421Z,23.33
2017-10-17T12:24:50.060Z,23.97
2017-10-17T12:27:23.817Z,24.40
2017-10-17T12:29:57.759Z,24.27
2017-10-17T12:32:33.100Z,23.37
2017-10-17T12:35:07.437Z,24.93
2017-10-17T12:37:41.074Z,24.13
2017-10-17T12:40:14.841Z,25.93
2017-10-17T12:42:51.842Z,25.17
2017-10-17T12:45:25.462Z,23.67
2017-10-17T12:47:59.909Z,24.77
2017-10-17T12:50:33.683Z,23.93
2017-10-17T12:53:07.242Z,26.43
2017-10-17T12:55:41.013Z,24.80
2017-10-17T12:58:14.817Z,23.97
2017-10-17T13:00:48.534Z,26.40
2017-10-17T13:03:22.321Z,27.73
2017-10-17T13:05:55.892Z,28.00
2017-10-17T13:08:30.296Z,27.50
2017-10-17T13:11:03.837Z,26.97
2017-10-17T13:13:38.448Z,27.00
2017-10-17T13:16:12.021Z,27.60
2017-10-17T13:18:45.887Z,26.20
2017-10-17T13:21:19.605Z,26.13
2017-10-17T13:23:53.304Z,28.20
2017-10-17T13:26:27.030Z,28.43
2017-10-17T13:29:01.449Z,28.10
2017-10-17T13:31:35.986Z,28.77
2017-10-17T13:34:31.021Z,30.50
2017-10-17T13:40:08.188Z,30.37
2017-10-17T13:42:41.957Z,31.30
2017-10-17T13:45:15.636Z,29.20
2017-10-17T13:47:50.897Z,29.70
2017-10-17T13:50:24.519Z,29.60
2017-10-17T13:52:58.622Z,30.87
2017-10-17T13:55:32.462Z,30.60
2017-10-17T13:58:06.273Z,31.20
2017-10-17T14:00:40.024Z,31.83
2017-10-17T14:03:13.812Z,32.23
2017-10-17T14:05:47.544Z,34.80
2017-10-17T14:08:21.301Z,32.60
2017-10-17T14:10:55.020Z,31.40
2017-10-17T14:13:28.752Z,32.30
2017-10-17T14:16:02.530Z,34.87
2017-10-17T14:18:36.330Z,31.97
2017-10-17T14:21:10.750Z,32.67
2017-10-17T14:23:45.235Z,33.10
2017-10-17T14:26:18.772Z,32.40
2017-10-17T14:28:52.553Z,34.33
2017-10-17T14:31:26.260Z,32.07
2017-10-17T14:34:00.021Z,35.13
2017-10-17T14:36:33.759Z,34.43
2017-10-17T14:39:09.185Z,34.13
2017-10-17T14:41:43.038Z,34.23
2017-10-17T14:44:16.775Z,35.10
2017-10-17T14:46:50.457Z,32.30
2017-10-17T14:49:24.196Z,36.37
2017-10-17T14:51:58.237Z,36.30
2017-10-17T14:54:31.924Z,34.17
2017-10-17T14:57:05.538Z,35.27
2017-10-17T14:59:39.243Z,35.57
2017-10-17T15:02:15.935Z,34.40
2017-10-17T15:04:49.517Z,35.23
2017-10-17T15:07:23.210Z,34.17
2017-10-17T15:09:56.849Z,35.23
2017-10-17T15:12:30.613Z,36.93
2017-10-17T15:15:04.340Z,36.07
2017-10-17T15:17:38.079Z,36.40
2017-10-17T15:20:11.850Z,35.57
2017-10-17T15:22:45.594Z,37.83
2017-10-17T15:25:19.284Z,36.37
2017-10-17T15:27:52.894Z,37.30
2017-10-17T15:30:26.643Z,34.43
2017-10-17T15:33:00.200Z,34.33
2017-10-17T15:35:33.985Z,35.97
2017-10-17T15:38:07.776Z,37.70
2017-10-17T15:40:42.249Z,35.67
2017-10-17T15:43:16.741Z,37.20
2017-10-17T15:45:51.504Z,37.70
2017-10-17T15:48:25.980Z,37.97
2017-10-17T15:50:59.922Z,38.70
2017-10-17T15:53:33.547Z,39.33
2017-10-17T15:56:07.209Z,38.27
2017-10-17T15:58:41.373Z,38.90
2017-10-17T16:01:15.938Z,39.00
2017-10-17T16:03:49.495Z,35.50
2017-10-17T16:06:23.503Z,37.07
2017-10-17T16:08:58.412Z,41.33
2017-10-17T16:11:32.243Z,41.07
2017-10-17T16:14:05.948Z,33.63
2017-10-17T16:16:39.626Z,40.23
2017-10-17T16:19:13.290Z,39.80
2017-10-17T16:21:47.773Z,42.87
2017-10-17T16:24:22.305Z,42.17
2017-10-17T16:26:55.961Z,38.83
2017-10-17T16:29:29.692Z,41.50
2017-10-17T16:32:03.448Z,43.70
2017-10-17T16:34:37.253Z,40.20
2017-10-17T16:37:11.047Z,42.27
2017-10-17T16:39:44.902Z,42.33
2017-10-17T16:42:20.125Z,42.67
2017-10-17T16:44:54.805Z,38.60
2017-10-17T16:47:28.750Z,43.43
2017-10-17T16:50:03.163Z,41.73
2017-10-17T16:52:37.034Z,41.63
2017-10-17T16:55:10.879Z,41.80
2017-10-17T16:57:44.612Z,40.87
2017-10-17T17:00:19.292Z,42.47
2017-10-17T17:02:52.930Z,43.77
2017-10-17T17:05:27.412Z,41.87
2017-10-17T17:08:01.952Z,42.20
2017-10-17T17:10:36.589Z,42.87
2017-10-17T17:13:10.275Z,41.60
2017-10-17T17:15:44.053Z,44.83
2017-10-17T17:18:17.897Z,41.83
2017-10-17T17:20:51.541Z,44.47
2017-10-17T17:23:25.336Z,44.03
2017-10-17T17:25:58.980Z,44.13
2017-10-17T17:28:32.751Z,42.13
2017-10-17T17:31:06.511Z,41.40
2017-10-17T17:33:40.294Z,43.70
2017-10-17T17:36:14.842Z,45.17
2017-10-17T17:38:48.653Z,42.70
2017-10-17T17:41:22.216Z,45.27
2017-10-17T17:43:56.041Z,47.37
2017-10-17T17:46:29.876Z,46.50
2017-10-17T17:49:03.556Z,43.00
2017-10-17T17:51:37.882Z,46.00
2017-10-17T17:54:11.601Z,47.40
2017-10-17T17:56:45.766Z,46.50
2017-10-17T17:59:19.364Z,48.57
2017-10-17T18:01:53.173Z,44.87
2017-10-17T18:04:26.904Z,46.53
2017-10-17T18:07:01.364Z,50.87
2017-10-17T18:09:35.137Z,47.60
2017-10-17T18:12:08.951Z,51.10
2017-10-17T18:14:42.675Z,46.83
2017-10-17T18:17:16.266Z,46.87
2017-10-17T18:19:50.853Z,48.53
2017-10-17T18:22:24.543Z,46.60
2017-10-17T18:24:58.325Z,46.20
2017-10-17T18:27:33.127Z,56.27
2017-10-17T18:30:06.828Z,51.00
2017-10-17T18:32:41.190Z,47.60
2017-10-17T18:35:19.068Z,46.20
2017-10-17T18:37:52.645Z,48.20
2017-10-17T18:40:27.023Z,43.60
2017-10-17T18:43:00.621Z,49.27
2017-10-17T18:45:34.376Z,53.27
2017-10-17T18:48:08.109Z,48.70
2017-10-17T18:50:41.760Z,51.10
2017-10-17T18:53:16.164Z,50.67
2017-10-17T18:55:49.990Z,52.30
2017-10-17T18:58:24.838Z,47.70
2017-10-17T19:00:59.532Z,48.93
2017-10-17T19:03:34.645Z,49.33
2017-10-17T19:06:08.554Z,75.97
2017-10-17T19:08:42.198Z,60.63
2017-10-17T19:11:15.966Z,49.70
2017-10-17T19:13:50.638Z,49.67
2017-10-17T19:16:24.295Z,51.17
2017-10-17T19:18:58.213Z,49.27
2017-10-17T19:21:32.015Z,48.40
2017-10-17T19:24:05.744Z,51.70
2017-10-17T19:26:39.521Z,49.07
2017-10-17T19:29:14.052Z,51.80
2017-10-17T19:31:48.718Z,51.87
2017-10-17T19:34:22.501Z,51.43
2017-10-17T19:36:56.189Z,49.13
2017-10-17T19:39:29.867Z,49.63
2017-10-17T19:42:05.081Z,51.40
2017-10-17T19:44:40.643Z,49.40
2017-10-17T19:47:15.632Z,51.70
2017-10-17T19:49:50.054Z,47.90
2017-10-17T19:52:26.831Z,49.07
2017-10-17T19:55:02.110Z,47.80
2017-10-17T19:57:36.534Z,48.67
2017-10-17T20:00:10.622Z,51.10
2017-10-17T20:02:44.513Z,52.07
2017-10-17T20:05:19.347Z,49.57
2017-10-17T20:07:53.767Z,50.30
2017-10-17T20:10:27.558Z,49.03
2017-10-17T20:30:05.179Z,50.10
2017-10-17T20:32:39.712Z,49.70
2017-10-17T20:35:14.133Z,51.00
2017-10-17T20:37:48.598Z,52.47
2017-10-17T20:40:22.290Z,54.43
2017-10-17T20:42:55.937Z,52.00
2017-10-17T20:45:30.625Z,50.27
2017-10-17T20:48:04.285Z,52.57
2017-10-17T20:50:38.041Z,50.43
2017-10-17T20:53:17.435Z,55.40
2017-10-17T20:55:51.079Z,48.87
2017-10-17T20:58:24.784Z,51.37
2017-10-17T21:00:59.252Z,52.13
2017-10-17T21:03:32.995Z,51.37
2017-10-17T21:06:07.553Z,54.73
2017-10-17T21:08:41.118Z,55.83
2017-10-17T21:11:14.888Z,52.67
2017-10-17T21:13:48.556Z,55.30
2017-10-17T21:16:22.894Z,53.97
2017-10-17T21:18:56.670Z,49.50
2017-10-17T21:21:30.521Z,57.80
2017-10-17T21:24:05.097Z,61.40
2017-10-17T21:26:38.972Z,59.70
2017-10-17T21:29:12.747Z,59.60
2017-10-17T21:31:46.568Z,57.33
2017-10-17T21:34:20.428Z,54.23
2017-10-17T21:36:54.154Z,52.20
2017-10-17T21:39:28.942Z,59.47
2017-10-17T21:42:02.781Z,59.97
2017-10-17T21:44:36.564Z,57.50
2017-10-17T21:47:10.590Z,54.80
2017-10-17T21:49:44.396Z,54.80
2017-10-17T21:52:18.986Z,57.57
2017-10-17T21:54:53.565Z,54.77
2017-10-17T21:57:27.392Z,59.07
2017-10-17T22:03:00.937Z,58.87
2017-10-17T22:05:35.381Z,53.37
2017-10-17T22:08:09.904Z,50.60
2017-10-17T22:10:43.666Z,54.37
2017-10-17T22:13:17.985Z,61.07
2017-10-17T22:15:51.916Z,60.07
2017-10-17T22:18:25.662Z,61.27
2017-10-17T22:20:59.540Z,57.07
2017-10-17T22:23:33.291Z,58.93
2017-10-17T22:26:07.093Z,57.87
2017-10-17T22:28:41.008Z,64.73
2017-10-17T22:31:15.669Z,58.63
2017-10-17T22:33:49.291Z,52.70
2017-10-17T22:36:23.090Z,57.30
2017-10-17T22:38:56.940Z,51.07
2017-10-17T22:41:30.623Z,60.20
2017-10-17T22:44:04.338Z,51.77
2017-10-17T22:46:46.596Z,52.07
2017-10-17T22:49:20.364Z,53.27
2017-10-17T22:51:54.102Z,51.23
2017-10-17T22:54:27.765Z,53.10
2017-10-17T22:57:01.426Z,52.20
2017-10-17T22:59:35.188Z,51.30
2017-10-17T23:02:09.064Z,51.07
2017-10-17T23:04:43.678Z,50.13
2017-10-17T23:07:18.271Z,50.07
2017-10-17T23:09:52.055Z,51.93
2017-10-17T23:12:26.733Z,55.00
2017-10-17T23:15:01.289Z,56.70
2017-10-17T23:17:46.907Z,58.23
2017-10-17T23:20:32.663Z,52.17
2017-10-17T23:23:06.495Z,52.07
2017-10-17T23:25:40.931Z,50.37
2017-10-17T23:28:14.693Z,57.83
2017-10-17T23:30:48.357Z,54.30
2017-10-17T23:33:22.278Z,60.33
2017-10-17T23:35:56.865Z,64.10
2017-10-17T23:38:30.545Z,64.27
2017-10-17T23:41:05.108Z,59.27
2017-10-17T23:43:39.552Z,57.67
2017-10-17T23:46:14.170Z,54.30
2017-10-17T23:48:47.899Z,55.30
2017-10-17T23:51:21.663Z,61.20
2017-10-17T23:53:55.491Z,55.53
2017-10-17T23:56:30.262Z,57.50
2017-10-17T23:59:04.633Z,61.70
